Time;durP1;ratioP1;P1;durP2;ratioP2;P2;SDS_P1;SDS_P2;PMS_P1;PMS_P2;Temp;Humidity;BMP_temperature;BMP_pressure;BME280_temperature;BME280_humidity;BME280_pressure;Samples;Min_cycle;Max_cycle;Signal;HPM_P1;HPM_P2
2022/08/15 00:02:04;;;;;;;4.10;3.70;;;;;;;20.23;84.04;94029.09;5015348;28;20208;-82
2022/08/15 00:04:31;;;;;;;3.78;3.47;;;;;;;20.20;84.00;94017.31;5029859;28;20240;-84
2022/08/15 00:06:58;;;;;;;4.47;4.00;;;;;;;20.21;83.93;94031.91;5029606;28;20195;-82
2022/08/15 00:09:25;;;;;;;4.53;4.13;;;;;;;20.13;84.01;94015.81;5029831;28;20227;-83
2022/08/15 00:11:56;;;;;;;4.72;4.32;;;;;;;20.19;84.38;94030.53;5029343;28;20187;-83
2022/08/15 00:14:25;;;;;;;5.33;4.47;;;;;;;20.17;84.50;94035.94;5029365;28;20237;-83
2022/08/15 00:16:52;;;;;;;5.37;4.60;;;;;;;20.17;84.46;94035.16;5028674;28;20196;-79
2022/08/15 00:19:22;;;;;;;5.15;4.75;;;;;;;20.04;85.10;94023.88;5028697;28;20187;-84
2022/08/15 00:21:54;;;;;;;6.20;5.70;;;;;;;20.10;85.28;94037.00;5029390;28;20188;-82
2022/08/15 00:24:25;;;;;;;8.87;6.07;;;;;;;20.07;85.77;94032.22;5029238;28;20196;-83
2022/08/15 00:26:55;;;;;;;5.90;5.40;;;;;;;20.01;85.97;94023.50;5029493;28;20282;-84
2022/08/15 00:29:25;;;;;;;7.10;6.50;;;;;;;20.08;86.26;94036.41;5028931;28;20227;-82
2022/08/15 00:31:53;;;;;;;8.17;6.90;;;;;;;20.07;86.33;94020.03;5030466;28;20335;-84
2022/08/15 00:34:21;;;;;;;7.33;6.73;;;;;;;19.98;86.61;94023.91;5032629;28;20254;-84
2022/08/15 00:36:49;;;;;;;8.23;6.93;;;;;;;19.98;86.95;94019.50;5032666;28;20703;-84
2022/08/15 00:39:18;;;;;;;7.40;6.65;;;;;;;19.97;86.90;94019.72;5032660;28;20349;-83
2022/08/15 00:41:48;;;;;;;7.57;6.87;;;;;;;19.86;87.03;94000.47;5032808;28;20195;-84
2022/08/15 00:44:20;;;;;;;7.50;6.80;;;;;;;19.89;86.86;94013.00;5032366;28;20632;-83
2022/08/15 00:46:52;;;;;;;6.97;6.30;;;;;;;19.95;86.78;94025.13;5032823;28;20196;-81
2022/08/15 00:49:20;;;;;;;6.23;5.70;;;;;;;19.91;86.92;94018.00;5032229;28;20223;-83
2022/08/15 00:51:51;;;;;;;6.40;5.80;;;;;;;19.93;86.55;94021.16;5032941;28;20586;-83
2022/08/15 00:54:22;;;;;;;10.17;6.27;;;;;;;19.92;86.74;94019.56;5032445;28;20705;-83
2022/08/15 00:56:54;;;;;;;6.27;5.67;;;;;;;19.86;86.67;94017.81;5032447;28;20551;-84
2022/08/15 00:59:25;;;;;;;6.20;5.67;;;;;;;19.91;86.31;94018.78;5032541;28;20191;-82
2022/08/15 01:01:53;;;;;;;6.53;5.93;;;;;;;19.83;86.18;94003.47;5032698;28;20199;-82
2022/08/15 01:04:21;;;;;;;5.13;4.73;;;;;;;19.86;86.46;94016.03;5032269;28;20200;-82
2022/08/15 01:06:49;;;;;;;6.17;5.30;;;;;;;19.83;86.59;94011.25;5032434;28;20199;-82
2022/08/15 01:09:17;;;;;;;6.57;5.97;;;;;;;19.77;86.70;93999.94;5032080;28;20234;-83
2022/08/15 01:11:51;;;;;;;6.53;5.70;;;;;;;19.80;86.46;94003.88;5032029;28;20207;-80
2022/08/15 01:14:20;;;;;;;6.00;5.40;;;;;;;19.73;86.71;93996.16;5031636;28;20196;-81
2022/08/15 01:16:48;;;;;;;6.97;6.37;;;;;;;19.75;86.65;93999.31;5031995;28;20188;-83
2022/08/15 01:19:19;;;;;;;6.00;5.50;;;;;;;19.73;86.48;93987.56;5031600;28;20662;-85
2022/08/15 01:22:03;;;;;;;6.10;5.60;;;;;;;19.76;86.60;93987.16;5032381;28;20202;-81
2022/08/15 01:24:47;;;;;;;6.30;5.70;;;;;;;19.74;86.55;93996.97;5031493;28;20628;-79
2022/08/15 01:27:16;;;;;;;6.83;6.20;;;;;;;19.74;86.33;94002.16;5032152;28;20274;-83
2022/08/15 01:29:44;;;;;;;7.30;6.67;;;;;;;19.48;86.83;93977.16;5032317;28;20246;-82
2022/08/15 01:32:11;;;;;;;6.27;5.77;;;;;;;19.72;86.34;94002.34;5031481;28;20588;-81
2022/08/15 01:34:37;;;;;;;5.57;4.97;;;;;;;19.73;86.56;94013.50;5031682;28;20246;-83
2022/08/15 01:37:05;;;;;;;6.70;6.10;;;;;;;19.69;86.44;94017.53;5031371;28;20232;-82
2022/08/15 01:39:38;;;;;;;6.60;6.00;;;;;;;19.67;86.35;94006.56;5031238;28;20195;-82
2022/08/15 01:42:12;;;;;;;6.07;5.47;;;;;;;19.71;86.63;94013.72;5031065;28;20199;-81
2022/08/15 01:44:43;;;;;;;7.30;6.60;;;;;;;19.69;86.95;94012.34;5031356;28;20203;-82
2022/08/15 01:47:17;;;;;;;6.87;6.17;;;;;;;19.63;86.98;94008.78;5031668;28;20253;-85
2022/08/15 01:49:54;;;;;;;6.63;5.60;;;;;;;19.47;86.80;93975.53;5031596;28;20234;-82
2022/08/15 01:52:23;;;;;;;8.50;6.33;;;;;;;19.70;87.06;94016.53;5031037;28;20570;-80
2022/08/15 01:54:53;;;;;;;6.73;6.13;;;;;;;19.68;87.11;94010.75;5031316;28;20188;-83
2022/08/15 01:57:22;;;;;;;7.50;6.80;;;;;;;19.69;86.83;94007.16;5030994;28;20230;-83
2022/08/15 01:59:55;;;;;;;7.40;6.73;;;;;;;19.69;86.74;94002.78;5031101;28;20192;-82
2022/08/15 02:02:22;;;;;;;7.73;6.93;;;;;;;19.69;86.67;93999.38;5030919;28;20202;-82
2022/08/15 02:04:49;;;;;;;7.57;6.80;;;;;;;19.67;86.72;94002.19;5031137;28;20282;-82
2022/08/15 02:07:19;;;;;;;8.13;7.10;;;;;;;19.52;86.89;93966.16;5031492;28;20192;-82
2022/08/15 02:09:47;;;;;;;7.77;7.07;;;;;;;19.65;86.71;93986.03;5031087;28;20224;-83
2022/08/15 02:12:15;;;;;;;10.17;7.93;;;;;;;19.65;86.75;93985.25;5030876;28;20571;-80
2022/08/15 02:14:44;;;;;;;9.53;8.63;;;;;;;19.62;86.90;93989.06;5030714;28;20190;-81
2022/08/15 02:17:11;;;;;;;9.07;8.17;;;;;;;19.64;86.94;94000.00;5031241;28;20604;-83
2022/08/15 02:19:40;;;;;;;9.07;8.17;;;;;;;19.61;86.98;93994.47;5031009;28;20199;-84
2022/08/15 02:22:09;;;;;;;10.53;9.47;;;;;;;19.55;86.79;93999.44;5030571;28;20192;-84
2022/08/15 02:24:37;;;;;;;9.90;8.40;;;;;;;19.62;86.92;94001.22;5030453;28;20278;-79
2022/08/15 02:27:06;;;;;;;9.60;8.43;;;;;;;19.53;87.99;94006.63;5031129;28;20188;-79
2022/08/15 02:29:33;;;;;;;37.77;29.60;;;;;;;19.36;87.49;93982.22;5030328;28;20235;-81
2022/08/15 02:32:07;;;;;;;16.57;14.00;;;;;;;19.58;87.78;94013.00;5030864;28;20658;-82
2022/08/15 02:34:35;;;;;;;13.17;11.07;;;;;;;19.57;87.93;94011.41;5030114;28;20187;-83
2022/08/15 02:37:02;;;;;;;11.37;9.47;;;;;;;19.54;87.38;94008.22;5030255;28;20677;-82
2022/08/15 02:39:28;;;;;;;9.73;8.53;;;;;;;19.60;86.94;94016.16;5030516;28;20191;-82
2022/08/15 02:41:55;;;;;;;10.07;9.07;;;;;;;19.58;87.25;94013.00;5030426;28;20664;-83
2022/08/15 02:44:23;;;;;;;9.53;8.63;;;;;;;19.52;87.52;94023.22;5030259;28;20666;-80
2022/08/15 02:46:52;;;;;;;9.90;8.90;;;;;;;19.47;87.58;94028.22;5030443;28;20195;-83
2022/08/15 02:49:23;;;;;;;10.87;9.53;;;;;;;19.54;87.59;94046.34;5030584;28;20222;-80
2022/08/15 02:51:51;;;;;;;10.07;8.93;;;;;;;19.50;87.96;94037.38;5030847;28;20202;-83
2022/08/15 02:54:26;;;;;;;10.13;9.23;;;;;;;19.50;88.04;94039.97;5029179;28;20648;-81
2022/08/15 02:56:53;;;;;;;10.13;9.07;;;;;;;19.51;87.95;94047.53;5030164;28;20187;-82
2022/08/15 02:59:20;;;;;;;10.80;9.70;;;;;;;19.52;88.04;94043.16;5030519;28;20218;-82
2022/08/15 03:01:47;;;;;;;11.13;10.03;;;;;;;19.50;87.97;94045.94;5031384;28;20218;-82
2022/08/15 03:04:23;;;;;;;11.50;10.40;;;;;;;19.38;88.52;94036.44;5031294;28;20199;-84
2022/08/15 03:06:53;;;;;;;11.87;10.73;;;;;;;19.37;88.99;94042.63;5031472;28;20681;-81
2022/08/15 03:09:22;;;;;;;11.80;10.70;;;;;;;19.40;88.70;94053.41;5031582;28;20234;-81
2022/08/15 03:11:49;;;;;;;10.47;9.43;;;;;;;19.40;88.82;94050.81;5033165;28;20651;-81
2022/08/15 03:14:22;;;;;;;11.90;10.80;;;;;;;19.42;88.81;94055.78;5030341;28;20196;-82
2022/08/15 03:16:50;;;;;;;12.20;11.00;;;;;;;19.42;88.65;94058.38;5030639;28;20242;-81
2022/08/15 03:19:25;;;;;;;12.17;10.97;;;;;;;19.46;88.09;94064.72;5030721;28;20180;-82
2022/08/15 03:21:53;;;;;;;14.30;11.20;;;;;;;19.44;88.31;94062.34;5030101;28;20199;-83
2022/08/15 03:24:21;;;;;;;11.67;10.57;;;;;;;19.40;88.35;94060.38;5032571;28;20202;-82
2022/08/15 03:26:49;;;;;;;12.17;11.07;;;;;;;19.33;88.45;94072.56;5032492;28;20188;-83
2022/08/15 03:29:19;;;;;;;13.40;10.53;;;;;;;19.31;88.63;94080.56;5029927;28;20195;-82
2022/08/15 03:31:49;;;;;;;12.60;11.37;;;;;;;19.33;88.35;94080.34;5029803;28;20656;-80
2022/08/15 03:34:17;;;;;;;15.13;11.83;;;;;;;19.29;88.60;94085.94;5029554;28;20195;-82
2022/08/15 03:36:46;;;;;;;12.87;11.20;;;;;;;19.28;88.41;94070.59;5029214;28;20231;-82
2022/08/15 03:39:13;;;;;;;12.93;11.70;;;;;;;19.35;88.05;94078.38;5030184;28;20184;-81
2022/08/15 03:41:41;;;;;;;12.23;11.03;;;;;;;19.37;87.80;94081.53;5030223;28;20300;-82
2022/08/15 03:44:08;;;;;;;14.93;10.70;;;;;;;19.36;87.58;94074.75;5030343;28;20320;-83
2022/08/15 03:46:35;;;;;;;12.60;11.33;;;;;;;19.42;87.61;94076.50;5032154;28;20188;-82
2022/08/15 03:49:02;;;;;;;12.27;11.17;;;;;;;19.49;86.85;94077.28;5035152;28;20299;-84
2022/08/15 03:51:30;;;;;;;14.17;12.67;;;;;;;19.45;87.15;94079.50;5033127;28;20226;-83
2022/08/15 03:54:01;;;;;;;16.33;11.67;;;;;;;19.47;87.47;94084.47;5032570;28;20183;-82
2022/08/15 03:56:31;;;;;;;14.65;13.02;;;;;;;19.47;87.68;94085.28;5033852;28;20202;-86
2022/08/15 03:58:59;;;;;;;14.57;13.03;;;;;;;19.25;87.37;94040.69;5031447;28;20187;-81
2022/08/15 04:01:29;;;;;;;14.17;11.87;;;;;;;19.62;86.72;94089.44;5030294;28;20337;-83
2022/08/15 04:03:56;;;;;;;13.30;12.00;;;;;;;19.55;86.79;94089.41;5029310;28;20195;-83
2022/08/15 04:06:25;;;;;;;13.87;12.47;;;;;;;19.64;86.54;94090.78;5031477;28;20197;-81
2022/08/15 04:08:54;;;;;;;15.33;12.97;;;;;;;19.61;86.77;94091.22;5033325;28;20218;-81
2022/08/15 04:11:28;;;;;;;13.97;12.57;;;;;;;19.64;87.10;94093.38;5033340;28;20245;-83
2022/08/15 04:13:55;;;;;;;13.77;12.37;;;;;;;19.50;86.92;94077.06;5033303;28;20233;-82
2022/08/15 04:16:23;;;;;;;15.20;13.53;;;;;;;19.70;86.74;94097.75;5033062;28;20305;-82
2022/08/15 04:18:49;;;;;;;15.37;13.77;;;;;;;19.66;86.81;94082.81;5033552;28;20184;-83
2022/08/15 04:21:16;;;;;;;16.17;14.50;;;;;;;19.76;86.69;94085.75;5032750;28;20199;-83
2022/08/15 04:23:46;;;;;;;18.67;15.50;;;;;;;19.80;86.79;94085.09;5033051;28;20202;-83
2022/08/15 04:26:14;;;;;;;17.53;15.57;;;;;;;19.83;86.62;94080.53;5032775;28;20214;-80
2022/08/15 04:28:43;;;;;;;16.47;14.87;;;;;;;19.82;87.00;94079.72;5033275;28;20789;-81
2022/08/15 04:31:12;;;;;;;16.80;15.10;;;;;;;19.81;86.97;94067.75;5033261;28;20219;-82
2022/08/15 04:33:39;;;;;;;17.07;15.20;;;;;;;19.88;87.12;94076.28;5033302;28;20286;-81
2022/08/15 04:36:09;;;;;;;18.30;15.07;;;;;;;19.91;87.12;94069.91;5032950;28;20231;-84
2022/08/15 04:38:37;;;;;;;17.27;15.37;;;;;;;19.97;86.75;94075.03;5032520;28;20203;-83
2022/08/15 04:41:05;;;;;;;18.73;16.47;;;;;;;19.88;86.62;94054.75;5032997;28;20200;-81
2022/08/15 04:43:33;;;;;;;18.60;16.70;;;;;;;20.08;86.16;94076.16;5032521;28;20196;-81
2022/08/15 04:46:02;;;;;;;20.48;16.05;;;;;;;20.10;86.04;94084.53;5032474;28;20196;-82
2022/08/15 04:48:30;;;;;;;21.75;15.57;;;;;;;20.12;85.97;94074.72;5032477;28;20570;-80
2022/08/15 04:50:59;;;;;;;17.63;15.40;;;;;;;20.14;85.88;94072.72;5032439;28;20610;-83
2022/08/15 04:53:30;;;;;;;18.63;16.73;;;;;;;20.21;85.80;94090.84;5032594;28;20196;-81
2022/08/15 04:55:58;;;;;;;19.00;17.02;;;;;;;20.18;85.59;94076.47;5032718;28;20188;-83
2022/08/15 04:58:25;;;;;;;20.20;17.60;;;;;;;20.23;85.42;94079.22;5032335;28;20651;-82
2022/08/15 05:00:57;;;;;;;18.33;16.37;;;;;;;20.22;85.28;94071.66;5032419;28;20184;-82
2022/08/15 05:03:26;;;;;;;19.83;17.55;;;;;;;20.38;85.45;94086.72;5032197;28;20198;-82
2022/08/15 05:06:01;;;;;;;20.00;17.23;;;;;;;20.36;84.88;94067.94;5032470;28;20203;-83
2022/08/15 05:08:30;;;;;;;20.67;17.02;;;;;;;20.49;85.11;94088.63;5032277;28;20210;-82
2022/08/15 05:11:03;;;;;;;27.42;23.70;;;;;;;20.59;84.99;94076.94;5032005;28;20223;-83
2022/08/15 05:13:32;;;;;;;37.10;29.13;;;;;;;20.72;84.79;94076.81;5031856;28;20182;-83
2022/08/15 05:15:59;;;;;;;28.35;24.13;;;;;;;20.82;84.21;94066.72;5032368;28;20203;-84
2022/08/15 05:18:29;;;;;;;21.15;18.90;;;;;;;20.87;83.60;94073.88;5031163;28;20183;-84
2022/08/15 05:20:56;;;;;;;19.70;17.20;;;;;;;20.87;82.96;94069.47;5032034;28;20274;-82
2022/08/15 05:23:25;;;;;;;20.60;18.27;;;;;;;20.94;83.09;94069.38;5032211;28;20200;-84
2022/08/15 05:25:55;;;;;;;20.38;18.17;;;;;;;20.99;82.86;94069.56;5031968;28;20188;-81
2022/08/15 05:28:22;;;;;;;20.85;18.75;;;;;;;21.09;82.79;94074.25;5032090;28;20286;-82
2022/08/15 05:30:51;;;;;;;23.95;18.90;;;;;;;21.19;82.57;94075.31;5034270;28;20212;-80
2022/08/15 05:33:21;;;;;;;20.88;17.35;;;;;;;21.07;82.01;94055.44;5033047;28;20257;-81
2022/08/15 05:35:54;;;;;;;22.88;18.75;;;;;;;21.25;81.46;94069.25;5031715;28;20232;-85
2022/08/15 05:38:25;;;;;;;21.83;19.15;;;;;;;21.18;81.64;94033.94;5031642;28;20277;-82
2022/08/15 05:41:07;;;;;;;21.90;18.95;;;;;;;21.44;81.00;94071.84;5031627;28;20667;-83
2022/08/15 05:43:44;;;;;;;21.77;19.13;;;;;;;21.39;80.74;94063.91;5031375;28;20195;-82
2022/08/15 05:46:21;;;;;;;20.98;18.77;;;;;;;21.58;80.60;94081.06;5032239;28;20199;-79
2022/08/15 05:48:56;;;;;;;21.33;19.00;;;;;;;21.72;80.65;94082.50;5031683;28;20195;-82
2022/08/15 05:51:30;;;;;;;21.70;19.48;;;;;;;21.89;80.30;94089.66;5031742;28;20587;-84
2022/08/15 05:54:11;;;;;;;21.63;18.45;;;;;;;21.95;78.81;94089.56;5031595;28;20188;-83
2022/08/15 05:56:47;;;;;;;20.83;18.58;;;;;;;22.03;78.03;94085.84;5031580;28;20188;-82
2022/08/15 05:59:16;;;;;;;21.88;19.55;;;;;;;22.07;78.54;94096.63;5031722;28;20195;-83
2022/08/15 06:01:47;;;;;;;20.73;18.63;;;;;;;22.08;78.37;94083.38;5031250;28;20204;-82
2022/08/15 06:04:22;;;;;;;21.40;19.10;;;;;;;22.04;77.25;94077.00;5031726;28;20199;-82
2022/08/15 06:06:51;;;;;;;20.83;18.83;;;;;;;22.01;78.10;94083.44;5031224;28;20218;-82
2022/08/15 06:09:35;;;;;;;21.75;19.05;;;;;;;22.01;77.83;94086.06;5031413;28;20195;-81
2022/08/15 06:12:05;;;;;;;22.02;19.73;;;;;;;22.03;78.30;94094.44;5029676;28;20310;-83
2022/08/15 06:14:36;;;;;;;19.90;17.90;;;;;;;22.06;77.38;94093.19;5031198;28;20183;-83
2022/08/15 06:17:07;;;;;;;22.02;19.58;;;;;;;22.02;77.49;94090.28;5031707;28;20188;-82
2022/08/15 06:19:38;;;;;;;23.50;21.00;;;;;;;21.83;77.90;94070.50;5031144;28;20208;-82
2022/08/15 06:22:19;;;;;;;22.63;20.15;;;;;;;21.96;77.73;94083.31;5031000;28;20202;-82
2022/08/15 06:24:59;;;;;;;20.98;18.88;;;;;;;21.96;77.46;94083.31;5030991;28;20562;-81
2022/08/15 06:27:33;;;;;;;22.10;19.70;;;;;;;22.00;78.26;94084.47;5031549;28;20226;-83
2022/08/15 06:30:06;;;;;;;22.40;19.70;;;;;;;22.01;78.31;94091.25;5031064;28;20192;-79
2022/08/15 06:32:41;;;;;;;20.40;18.20;;;;;;;22.07;78.29;94081.00;5030809;28;20249;-81
2022/08/15 06:35:20;;;;;;;21.80;19.40;;;;;;;22.23;77.82;94083.75;5030728;28;20195;-82
2022/08/15 06:37:58;;;;;;;21.92;19.60;;;;;;;22.28;77.26;94102.13;5030942;28;20543;-82
2022/08/15 06:40:33;;;;;;;20.08;18.02;;;;;;;22.29;77.25;94095.88;5030506;28;20203;-82
2022/08/15 06:43:00;;;;;;;21.17;18.65;;;;;;;22.43;76.93;94096.47;5030781;28;20548;-83
2022/08/15 06:45:30;;;;;;;21.52;19.25;;;;;;;22.46;76.47;94093.41;5030711;28;20190;-83
2022/08/15 06:48:04;;;;;;;22.13;19.85;;;;;;;22.50;76.73;94096.38;5031047;28;20192;-83
2022/08/15 06:50:38;;;;;;;21.50;19.40;;;;;;;22.40;76.96;94070.84;5030790;28;20257;-84
2022/08/15 06:53:12;;;;;;;20.88;18.67;;;;;;;22.62;75.27;94110.19;5031252;28;20205;-84
2022/08/15 06:55:48;;;;;;;25.98;20.70;;;;;;;22.61;75.53;94103.38;5030300;28;20195;-81
2022/08/15 06:58:22;;;;;;;28.05;20.13;;;;;;;22.58;75.79;94096.00;5031168;28;20202;-84
2022/08/15 07:00:57;;;;;;;22.67;20.23;;;;;;;22.67;75.01;94106.91;5030190;28;20199;-82
2022/08/15 07:03:47;;;;;;;25.05;20.42;;;;;;;22.47;75.63;94091.59;5030145;28;20675;-83
2022/08/15 07:06:19;;;;;;;23.40;20.90;;;;;;;22.44;75.65;94107.69;5030486;28;20210;-84
2022/08/15 07:08:54;;;;;;;24.88;22.27;;;;;;;22.43;75.85;94111.31;5030368;28;20207;-85
2022/08/15 07:11:27;;;;;;;24.42;21.58;;;;;;;22.25;75.79;94094.75;5030410;28;20305;-84
2022/08/15 07:14:06;;;;;;;23.85;21.35;;;;;;;22.35;76.54;94114.25;5029856;28;20199;-84
2022/08/15 07:16:39;;;;;;;23.67;21.00;;;;;;;22.38;76.55;94116.41;5030368;28;20188;-84
2022/08/15 07:19:08;;;;;;;23.08;20.63;;;;;;;22.41;76.55;94100.31;5029919;28;20265;-85
2022/08/15 07:21:35;;;;;;;24.20;21.58;;;;;;;22.46;76.26;94101.25;5030110;28;20271;-82
2022/08/15 07:24:08;;;;;;;23.08;20.55;;;;;;;22.61;75.45;94102.59;5029985;28;20191;-82
2022/08/15 07:26:47;;;;;;;23.58;21.08;;;;;;;22.60;75.39;94101.00;5029921;28;20195;-80
2022/08/15 07:29:25;;;;;;;23.17;20.65;;;;;;;22.63;75.87;94106.56;5029867;28;20187;-82
2022/08/15 07:31:59;;;;;;;24.02;20.08;;;;;;;22.67;75.21;94105.09;5030020;28;20657;-83
2022/08/15 07:34:26;;;;;;;23.77;21.17;;;;;;;22.68;75.18;94108.50;5029785;28;20661;-84
2022/08/15 07:36:57;;;;;;;23.40;20.08;;;;;;;22.70;75.39;94099.41;5029766;28;20802;-82
2022/08/15 07:39:28;;;;;;;22.90;20.50;;;;;;;22.96;75.53;94115.66;5029875;28;20210;-80
2022/08/15 07:41:55;;;;;;;21.90;19.60;;;;;;;23.04;74.85;94105.66;5029268;28;20567;-82
2022/08/15 07:44:26;;;;;;;22.98;20.48;;;;;;;23.29;75.21;94108.00;5029642;28;20199;-83
2022/08/15 07:46:59;;;;;;;22.38;20.08;;;;;;;23.48;73.34;94115.66;5030023;28;20215;-81
2022/08/15 07:49:29;;;;;;;22.05;19.85;;;;;;;23.45;73.37;94122.16;5029856;28;20191;-85
2022/08/15 07:52:03;;;;;;;22.08;19.48;;;;;;;23.63;73.59;94123.00;5030039;28;20226;-85
2022/08/15 07:54:43;;;;;;;20.50;18.50;;;;;;;23.78;73.07;94126.72;5029791;28;20650;-85
2022/08/15 07:57:22;;;;;;;22.83;19.15;;;;;;;23.94;71.92;94127.00;5029692;28;20235;-83
2022/08/15 08:00:11;;;;;;;24.85;18.73;;;;;;;24.07;70.93;94123.31;5030073;28;20195;-81
2022/08/15 08:02:42;;;;;;;21.02;18.25;;;;;;;24.18;68.97;94125.88;5029570;28;20207;-81
2022/08/15 08:05:10;;;;;;;18.98;17.08;;;;;;;24.27;70.00;94139.34;5029383;28;20198;-83
2022/08/15 08:07:40;;;;;;;20.17;18.17;;;;;;;24.22;69.17;94134.81;5029691;28;20287;-83
2022/08/15 08:10:20;;;;;;;20.35;17.85;;;;;;;24.26;70.27;94133.28;5029858;28;20250;-82
2022/08/15 08:13:01;;;;;;;19.98;17.75;;;;;;;24.32;68.80;94144.66;5030199;28;20233;-83
2022/08/15 08:15:36;;;;;;;18.15;16.35;;;;;;;24.44;69.57;94142.00;5029607;28;20184;-80
2022/08/15 08:18:06;;;;;;;19.52;17.50;;;;;;;24.41;68.92;94143.25;5030040;28;20195;-83
2022/08/15 08:20:39;;;;;;;19.55;17.63;;;;;;;24.59;68.30;94142.22;5029706;28;20198;-84
2022/08/15 08:23:20;;;;;;;18.25;16.48;;;;;;;24.67;68.30;94136.59;5030231;28;20582;-83
2022/08/15 08:26:01;;;;;;;18.10;16.20;;;;;;;24.76;68.44;94142.22;5029640;28;20286;-84
2022/08/15 08:28:38;;;;;;;18.85;16.95;;;;;;;24.75;68.51;94119.72;5029455;28;20282;-82
2022/08/15 08:31:16;;;;;;;17.55;15.85;;;;;;;25.11;67.92;94130.72;5029325;28;20204;-82
2022/08/15 08:33:55;;;;;;;18.85;17.02;;;;;;;25.21;66.65;94141.28;5029992;28;20188;-83
2022/08/15 08:36:29;;;;;;;17.63;15.93;;;;;;;25.33;66.71;94131.50;5029723;28;20234;-84
2022/08/15 08:39:07;;;;;;;19.75;15.73;;;;;;;25.40;67.03;94133.97;5029908;28;20211;-83
2022/08/15 08:41:46;;;;;;;18.35;16.58;;;;;;;25.43;66.85;94138.69;5030138;28;20203;-83
2022/08/15 08:44:23;;;;;;;18.70;16.98;;;;;;;25.42;66.53;94137.91;5029116;28;20196;-84
2022/08/15 08:47:14;;;;;;;18.52;16.83;;;;;;;25.44;65.80;94114.91;5028721;28;20631;-84
2022/08/15 08:49:48;;;;;;;19.23;17.33;;;;;;;25.68;65.78;94130.34;5029321;28;20184;-84
2022/08/15 08:52:25;;;;;;;19.02;17.13;;;;;;;25.63;65.77;94107.50;5029283;28;20311;-84
2022/08/15 08:55:01;;;;;;;18.17;16.35;;;;;;;26.03;65.49;94128.13;5033181;28;20258;-83
2022/08/15 08:57:36;;;;;;;17.52;15.82;;;;;;;26.20;64.95;94124.63;5033349;28;20292;-82
2022/08/15 09:00:08;;;;;;;16.67;15.07;;;;;;;26.20;62.86;94133.25;5033343;28;20203;-84
2022/08/15 09:02:40;;;;;;;17.80;16.10;;;;;;;26.23;63.32;94124.91;5032452;28;20203;-84
2022/08/15 09:05:15;;;;;;;18.52;16.83;;;;;;;25.75;61.98;94084.59;5032253;28;20180;-84
2022/08/15 09:07:49;;;;;;;18.50;16.65;;;;;;;26.03;61.25;94112.41;5032163;28;20581;-85
2022/08/15 09:10:23;;;;;;;17.50;15.70;;;;;;;26.06;62.25;94123.44;5032203;28;20198;-83
2022/08/15 09:15:43;;;;;;;16.45;14.82;;;;;;;26.47;62.38;94101.03;5032689;28;20195;-82
2022/08/15 09:18:15;;;;;;;17.15;15.45;;;;;;;26.64;61.03;94108.72;5032597;28;20214;-83
2022/08/15 09:20:43;;;;;;;18.08;16.15;;;;;;;26.83;61.50;94103.88;5031919;28;20630;-81
2022/08/15 09:23:12;;;;;;;18.00;15.85;;;;;;;26.77;60.03;94093.38;5032169;28;20594;-82
2022/08/15 09:25:49;;;;;;;18.83;16.92;;;;;;;26.67;60.43;94074.91;5032262;28;20215;-83
2022/08/15 09:28:23;;;;;;;17.10;15.50;;;;;;;26.94;59.85;94114.22;5032197;28;20202;-83
2022/08/15 09:30:51;;;;;;;18.15;16.33;;;;;;;26.92;60.10;94115.50;5032118;28;20200;-83
2022/08/15 09:33:49;;;;;;;17.20;15.50;;;;;;;26.71;59.16;94086.50;5031962;28;20281;-80
2022/08/15 09:36:36;;;;;;;17.05;15.27;;;;;;;26.92;60.25;94097.91;5031522;28;20233;-83
2022/08/15 09:39:18;;;;;;;18.25;14.27;;;;;;;27.00;59.12;94105.31;5032061;28;20188;-82
2022/08/15 09:42:04;;;;;;;15.25;13.73;;;;;;;26.76;59.06;94097.00;5031825;28;20196;-81
2022/08/15 09:44:54;;;;;;;16.60;14.90;;;;;;;26.81;59.75;94103.34;5031642;28;20194;-83
2022/08/15 09:48:03;;;;;;;15.05;13.48;;;;;;;26.77;60.14;94098.63;5031872;28;20197;-80
2022/08/15 09:50:41;;;;;;;16.17;14.57;;;;;;;26.76;60.18;94068.16;4913079;29;20200;-79
2022/08/15 09:53:19;;;;;;;16.02;14.63;;;;;;;27.01;58.72;94095.59;4912786;29;20263;-81
2022/08/15 09:55:49;;;;;;;15.75;14.13;;;;;;;27.07;59.33;94097.19;4913006;29;20222;-83
2022/08/15 09:58:21;;;;;;;15.90;14.30;;;;;;;27.08;58.30;94095.38;4912969;29;20196;-82
2022/08/15 10:01:03;;;;;;;16.90;14.02;;;;;;;27.08;59.45;94092.75;4912991;29;20196;-81
2022/08/15 10:03:53;;;;;;;15.52;13.95;;;;;;;27.15;59.65;94101.19;4912673;29;20195;-83
2022/08/15 10:06:23;;;;;;;15.38;13.93;;;;;;;27.24;59.85;94095.19;4912821;29;20233;-82
2022/08/15 10:09:30;;;;;;;15.68;14.07;;;;;;;27.28;59.25;94090.22;4912816;29;20230;-81
2022/08/15 10:12:22;;;;;;;17.25;15.20;;;;;;;27.29;59.33;94094.47;4856672;29;20320;-83
2022/08/15 10:15:03;;;;;;;15.70;14.20;;;;;;;27.44;58.76;94088.47;4819687;29;20625;-82
2022/08/15 10:17:45;;;;;;;16.50;14.85;;;;;;;27.45;58.73;94077.69;4819940;29;20199;-82
2022/08/15 10:20:59;;;;;;;14.65;13.35;;;;;;;27.58;57.63;94089.56;4819693;29;20213;-83
2022/08/15 10:23:31;;;;;;;13.00;11.77;;;;;;;27.61;56.70;94085.63;4748150;30;20205;-82
2022/08/15 10:26:21;;;;;;;12.38;11.23;;;;;;;27.49;56.53;94083.22;4747934;30;20655;-80
2022/08/15 10:29:00;;;;;;;13.63;12.32;;;;;;;27.48;57.17;94079.03;4837963;29;20213;-82
2022/08/15 10:31:29;;;;;;;11.35;10.25;;;;;;;27.49;57.22;94068.25;4837533;29;20608;-83
2022/08/15 10:34:02;;;;;;;10.93;9.95;;;;;;;27.51;56.84;94081.94;4837713;29;20199;-82
2022/08/15 10:36:34;;;;;;;11.57;10.20;;;;;;;27.52;55.91;94085.34;4837349;29;20261;-79
2022/08/15 10:39:25;;;;;;;11.15;10.05;;;;;;;27.57;56.03;94076.69;4837554;29;20205;-83
2022/08/15 10:42:03;;;;;;;11.52;10.55;;;;;;;27.58;55.99;94071.16;4837827;29;20198;-80
2022/08/15 10:44:46;;;;;;;10.77;9.77;;;;;;;27.59;56.51;94064.06;4837579;29;20205;-82
2022/08/15 10:47:22;;;;;;;10.88;9.98;;;;;;;27.57;56.99;94064.34;4912342;29;20637;-80
2022/08/15 10:50:03;;;;;;;11.65;10.65;;;;;;;27.59;56.46;94066.69;4911956;29;20195;-83
2022/08/15 10:52:40;;;;;;;11.20;10.00;;;;;;;27.65;55.77;94069.09;4939386;28;20222;-82
2022/08/15 10:55:25;;;;;;;10.05;9.05;;;;;;;27.66;55.60;94064.63;4949855;29;20650;-83
2022/08/15 10:57:55;;;;;;;11.45;10.32;;;;;;;27.74;55.19;94070.19;4948795;29;20598;-83
2022/08/15 11:00:43;;;;;;;11.38;10.20;;;;;;;27.65;54.93;94069.09;5002503;28;20198;-82
2022/08/15 11:03:18;;;;;;;11.15;10.15;;;;;;;27.49;55.26;94054.34;5030113;28;20187;-82
2022/08/15 11:05:55;;;;;;;11.10;10.10;;;;;;;27.63;55.67;94073.00;5030199;28;20218;-83
2022/08/15 11:08:23;;;;;;;11.38;10.18;;;;;;;27.71;56.00;94060.16;5029931;28;20201;-83
2022/08/15 11:10:51;;;;;;;10.07;9.15;;;;;;;27.88;55.91;94067.84;5030321;28;20191;-81
2022/08/15 11:13:23;;;;;;;10.95;9.65;;;;;;;27.97;54.67;94060.22;5029844;28;20251;-81
2022/08/15 11:15:55;;;;;;;9.57;8.68;;;;;;;27.96;54.69;94048.16;5029199;28;20196;-83
2022/08/15 11:18:28;;;;;;;9.70;8.75;;;;;;;28.07;54.22;94055.00;5029627;28;20246;-83
2022/08/15 11:21:02;;;;;;;10.52;9.43;;;;;;;28.11;52.85;94073.66;5030052;28;20226;-83
2022/08/15 11:23:36;;;;;;;9.55;8.68;;;;;;;28.09;52.30;94065.25;5029489;28;20199;-81
2022/08/15 11:26:05;;;;;;;10.75;9.82;;;;;;;28.04;53.85;94060.00;5030110;28;20187;-82
2022/08/15 11:28:32;;;;;;;9.52;8.55;;;;;;;28.10;51.83;94059.72;5029836;28;20191;-82
2022/08/15 11:31:02;;;;;;;10.63;9.52;;;;;;;28.15;52.95;94061.56;5029477;28;20188;-84
2022/08/15 11:33:40;;;;;;;9.93;9.02;;;;;;;28.20;52.39;94056.31;5029857;28;20231;-82
2022/08/15 11:36:13;;;;;;;10.52;8.68;;;;;;;28.26;52.51;94050.78;5029684;28;20289;-81
2022/08/15 11:38:44;;;;;;;10.30;9.10;;;;;;;28.36;52.43;94057.91;5029897;28;20187;-82
2022/08/15 11:41:20;;;;;;;13.02;8.88;;;;;;;28.44;53.15;94052.13;5029791;28;20206;-80
2022/08/15 11:43:48;;;;;;;9.48;8.50;;;;;;;28.52;52.05;94048.16;5029609;28;20658;-82
2022/08/15 11:46:18;;;;;;;10.90;9.38;;;;;;;28.56;52.04;94045.81;5030480;28;20394;-83
2022/08/15 11:48:49;;;;;;;10.52;9.15;;;;;;;28.56;51.29;94045.81;5032873;28;20200;-83
2022/08/15 11:51:27;;;;;;;9.45;8.60;;;;;;;28.58;51.00;94049.72;5032741;28;20204;-83